sensor_id;sensor_type;location;lat;lon;timestamp;P1;durP1;ratioP1;P2;durP2;ratioP2
58896;SDS011;44677;52.378;10.400;2023-02-19T00:00:09;6.20;;;4.40;;
58896;SDS011;44677;52.378;10.400;2023-02-19T00:05:29;6.50;;;4.50;;
58896;SDS011;44677;52.378;10.400;2023-02-19T00:08:14;7.20;;;5.40;;
58896;SDS011;44677;52.378;10.400;2023-02-19T00:10:40;6.30;;;4.80;;
58896;SDS011;44677;52.378;10.400;2023-02-19T00:13:21;6.00;;;4.60;;
58896;SDS011;44677;52.378;10.400;2023-02-19T00:15:47;4.70;;;3.90;;
58896;SDS011;44677;52.378;10.400;2023-02-19T00:18:13;6.50;;;5.00;;
58896;SDS011;44677;52.378;10.400;2023-02-19T00:20:56;5.40;;;4.30;;
58896;SDS011;44677;52.378;10.400;2023-02-19T00:23:22;6.30;;;4.50;;
58896;SDS011;44677;52.378;10.400;2023-02-19T00:26:06;7.50;;;4.70;;
58896;SDS011;44677;52.378;10.400;2023-02-19T00:28:39;7.20;;;4.40;;
58896;SDS011;44677;52.378;10.400;2023-02-19T00:31:59;7.20;;;4.90;;
58896;SDS011;44677;52.378;10.400;2023-02-19T00:34:25;8.00;;;4.90;;
58896;SDS011;44677;52.378;10.400;2023-02-19T00:36:51;6.90;;;5.00;;
58896;SDS011;44677;52.378;10.400;2023-02-19T00:39:16;10.10;;;4.40;;
58896;SDS011;44677;52.378;10.400;2023-02-19T00:41:42;6.80;;;4.50;;
58896;SDS011;44677;52.378;10.400;2023-02-19T00:44:09;7.30;;;4.70;;
58896;SDS011;44677;52.378;10.400;2023-02-19T00:49:05;6.30;;;4.00;;
58896;SDS011;44677;52.378;10.400;2023-02-19T00:51:50;7.50;;;4.30;;
58896;SDS011;44677;52.378;10.400;2023-02-19T00:54:26;6.20;;;4.40;;
58896;SDS011;44677;52.378;10.400;2023-02-19T00:56:52;7.00;;;4.50;;
58896;SDS011;44677;52.378;10.400;2023-02-19T00:59:18;6.70;;;4.50;;
58896;SDS011;44677;52.378;10.400;2023-02-19T01:01:44;6.50;;;4.70;;
58896;SDS011;44677;52.378;10.400;2023-02-19T01:04:09;10.10;;;5.30;;
58896;SDS011;44677;52.378;10.400;2023-02-19T01:06:35;11.10;;;5.60;;
58896;SDS011;44677;52.378;10.400;2023-02-19T01:09:02;8.40;;;4.90;;
58896;SDS011;44677;52.378;10.400;2023-02-19T01:11:49;9.70;;;4.80;;
58896;SDS011;44677;52.378;10.400;2023-02-19T01:14:26;13.90;;;6.20;;
58896;SDS011;44677;52.378;10.400;2023-02-19T01:16:51;11.20;;;5.90;;
58896;SDS011;44677;52.378;10.400;2023-02-19T01:19:17;8.30;;;5.30;;
58896;SDS011;44677;52.378;10.400;2023-02-19T01:21:43;9.30;;;5.70;;
58896;SDS011;44677;52.378;10.400;2023-02-19T01:24:49;9.60;;;5.30;;
58896;SDS011;44677;52.378;10.400;2023-02-19T01:27:15;9.60;;;5.20;;
58896;SDS011;44677;52.378;10.400;2023-02-19T01:29:41;10.60;;;5.50;;
58896;SDS011;44677;52.378;10.400;2023-02-19T01:32:26;12.10;;;5.90;;
58896;SDS011;44677;52.378;10.400;2023-02-19T01:35:01;10.20;;;6.30;;
58896;SDS011;44677;52.378;10.400;2023-02-19T01:37:30;11.80;;;6.10;;
58896;SDS011;44677;52.378;10.400;2023-02-19T01:39:56;10.00;;;7.10;;
58896;SDS011;44677;52.378;10.400;2023-02-19T01:42:21;9.10;;;6.30;;
58896;SDS011;44677;52.378;10.400;2023-02-19T01:47:13;11.20;;;6.90;;
58896;SDS011;44677;52.378;10.400;2023-02-19T01:49:58;11.60;;;6.80;;
58896;SDS011;44677;52.378;10.400;2023-02-19T01:52:31;10.00;;;7.00;;
58896;SDS011;44677;52.378;10.400;2023-02-19T01:54:59;11.40;;;7.00;;
58896;SDS011;44677;52.378;10.400;2023-02-19T01:57:47;8.70;;;6.90;;
58896;SDS011;44677;52.378;10.400;2023-02-19T02:00:16;11.50;;;7.50;;
58896;SDS011;44677;52.378;10.400;2023-02-19T02:02:43;14.70;;;7.50;;
58896;SDS011;44677;52.378;10.400;2023-02-19T02:08:41;10.80;;;7.60;;
58896;SDS011;44677;52.378;10.400;2023-02-19T02:11:25;14.40;;;7.80;;
58896;SDS011;44677;52.378;10.400;2023-02-19T02:13:51;12.50;;;7.80;;
58896;SDS011;44677;52.378;10.400;2023-02-19T02:22:37;6.10;;;5.40;;
58896;SDS011;44677;52.378;10.400;2023-02-19T02:30:46;7.40;;;5.20;;
58896;SDS011;44677;52.378;10.400;2023-02-19T02:36:38;6.10;;;5.10;;
58896;SDS011;44677;52.378;10.400;2023-02-19T02:39:20;7.60;;;5.00;;
58896;SDS011;44677;52.378;10.400;2023-02-19T02:42:11;6.50;;;4.10;;
58896;SDS011;44677;52.378;10.400;2023-02-19T02:45:33;7.10;;;4.80;;
58896;SDS011;44677;52.378;10.400;2023-02-19T02:48:00;7.80;;;4.70;;
58896;SDS011;44677;52.378;10.400;2023-02-19T02:54:15;6.60;;;4.40;;
58896;SDS011;44677;52.378;10.400;2023-02-19T02:56:50;7.20;;;4.80;;
58896;SDS011;44677;52.378;10.400;2023-02-19T02:59:55;4.90;;;4.00;;
58896;SDS011;44677;52.378;10.400;2023-02-19T03:02:41;7.20;;;4.50;;
58896;SDS011;44677;52.378;10.400;2023-02-19T03:05:22;4.50;;;4.00;;
58896;SDS011;44677;52.378;10.400;2023-02-19T03:08:27;5.10;;;3.40;;
58896;SDS011;44677;52.378;10.400;2023-02-19T03:11:27;3.60;;;3.30;;
58896;SDS011;44677;52.378;10.400;2023-02-19T03:14:35;3.30;;;3.00;;
58896;SDS011;44677;52.378;10.400;2023-02-19T03:17:21;3.80;;;3.10;;
58896;SDS011;44677;52.378;10.400;2023-02-19T03:20:16;3.60;;;3.30;;
58896;SDS011;44677;52.378;10.400;2023-02-19T03:23:11;3.20;;;2.90;;
58896;SDS011;44677;52.378;10.400;2023-02-19T03:25:39;2.70;;;2.50;;
58896;SDS011;44677;52.378;10.400;2023-02-19T03:28:53;2.40;;;2.20;;
58896;SDS011;44677;52.378;10.400;2023-02-19T03:32:13;2.00;;;1.90;;
58896;SDS011;44677;52.378;10.400;2023-02-19T03:35:51;1.40;;;1.20;;
58896;SDS011;44677;52.378;10.400;2023-02-19T03:38:50;1.40;;;1.30;;
58896;SDS011;44677;52.378;10.400;2023-02-19T03:41:23;1.00;;;1.00;;
58896;SDS011;44677;52.378;10.400;2023-02-19T03:47:36;1.10;;;0.70;;
58896;SDS011;44677;52.378;10.400;2023-02-19T03:50:41;0.90;;;0.90;;
58896;SDS011;44677;52.378;10.400;2023-02-19T03:56:15;1.90;;;1.50;;
58896;SDS011;44677;52.378;10.400;2023-02-19T03:59:29;1.30;;;1.20;;
58896;SDS011;44677;52.378;10.400;2023-02-19T04:02:18;1.20;;;1.20;;
58896;SDS011;44677;52.378;10.400;2023-02-19T04:05:21;1.60;;;1.50;;
58896;SDS011;44677;52.378;10.400;2023-02-19T04:08:32;1.30;;;1.20;;
58896;SDS011;44677;52.378;10.400;2023-02-19T04:11:59;1.40;;;1.30;;
58896;SDS011;44677;52.378;10.400;2023-02-19T04:14:31;1.60;;;1.50;;
58896;SDS011;44677;52.378;10.400;2023-02-19T04:17:21;2.00;;;1.60;;
58896;SDS011;44677;52.378;10.400;2023-02-19T04:20:23;3.80;;;1.80;;
58896;SDS011;44677;52.378;10.400;2023-02-19T04:23:09;1.70;;;1.60;;
58896;SDS011;44677;52.378;10.400;2023-02-19T04:25:36;2.20;;;1.80;;
58896;SDS011;44677;52.378;10.400;2023-02-19T04:28:50;1.80;;;1.60;;
58896;SDS011;44677;52.378;10.400;2023-02-19T04:31:15;2.50;;;1.50;;
58896;SDS011;44677;52.378;10.400;2023-02-19T04:33:41;1.70;;;1.60;;
58896;SDS011;44677;52.378;10.400;2023-02-19T04:36:06;2.50;;;1.60;;
58896;SDS011;44677;52.378;10.400;2023-02-19T04:38:50;3.90;;;1.60;;
58896;SDS011;44677;52.378;10.400;2023-02-19T04:41:16;2.30;;;1.60;;
58896;SDS011;44677;52.378;10.400;2023-02-19T04:43:41;2.60;;;1.60;;
58896;SDS011;44677;52.378;10.400;2023-02-19T04:46:07;4.80;;;1.90;;
58896;SDS011;44677;52.378;10.400;2023-02-19T04:48:32;4.50;;;2.00;;
58896;SDS011;44677;52.378;10.400;2023-02-19T04:50:58;5.30;;;2.10;;
58896;SDS011;44677;52.378;10.400;2023-02-19T04:53:43;3.50;;;1.90;;
58896;SDS011;44677;52.378;10.400;2023-02-19T04:56:10;5.00;;;2.10;;
58896;SDS011;44677;52.378;10.400;2023-02-19T04:58:48;3.00;;;1.70;;
58896;SDS011;44677;52.378;10.400;2023-02-19T05:01:14;5.20;;;2.30;;
58896;SDS011;44677;52.378;10.400;2023-02-19T05:03:39;3.60;;;2.30;;
58896;SDS011;44677;52.378;10.400;2023-02-19T05:06:06;5.30;;;2.30;;
58896;SDS011;44677;52.378;10.400;2023-02-19T05:08:50;2.40;;;2.20;;
58896;SDS011;44677;52.378;10.400;2023-02-19T05:11:15;6.30;;;2.50;;
58896;SDS011;44677;52.378;10.400;2023-02-19T05:13:41;5.50;;;2.30;;
58896;SDS011;44677;52.378;10.400;2023-02-19T05:16:26;4.70;;;2.70;;
58896;SDS011;44677;52.378;10.400;2023-02-19T05:18:52;5.00;;;2.60;;
58896;SDS011;44677;52.378;10.400;2023-02-19T05:21:18;6.40;;;3.60;;
58896;SDS011;44677;52.378;10.400;2023-02-19T05:24:06;3.40;;;2.70;;
58896;SDS011;44677;52.378;10.400;2023-02-19T05:27:11;2.90;;;2.00;;
58896;SDS011;44677;52.378;10.400;2023-02-19T05:29:37;2.90;;;2.00;;
58896;SDS011;44677;52.378;10.400;2023-02-19T05:32:02;1.50;;;1.40;;
58896;SDS011;44677;52.378;10.400;2023-02-19T05:34:27;1.20;;;1.20;;
58896;SDS011;44677;52.378;10.400;2023-02-19T05:36:53;1.10;;;1.00;;
58896;SDS011;44677;52.378;10.400;2023-02-19T05:39:19;1.10;;;1.00;;
58896;SDS011;44677;52.378;10.400;2023-02-19T05:41:45;2.00;;;1.00;;
58896;SDS011;44677;52.378;10.400;2023-02-19T05:44:10;2.60;;;1.20;;
58896;SDS011;44677;52.378;10.400;2023-02-19T05:46:36;2.60;;;1.10;;
58896;SDS011;44677;52.378;10.400;2023-02-19T05:49:01;1.60;;;1.20;;
58896;SDS011;44677;52.378;10.400;2023-02-19T05:51:27;2.10;;;0.90;;
58896;SDS011;44677;52.378;10.400;2023-02-19T05:53:53;1.10;;;1.10;;
58896;SDS011;44677;52.378;10.400;2023-02-19T05:56:40;0.80;;;0.80;;
58896;SDS011;44677;52.378;10.400;2023-02-19T05:59:17;0.70;;;0.60;;
58896;SDS011;44677;52.378;10.400;2023-02-19T06:01:49;1.40;;;1.10;;
58896;SDS011;44677;52.378;10.400;2023-02-19T06:04:34;2.40;;;1.50;;
58896;SDS011;44677;52.378;10.400;2023-02-19T06:09:26;1.10;;;1.10;;
58896;SDS011;44677;52.378;10.400;2023-02-19T06:11:52;1.70;;;1.50;;
58896;SDS011;44677;52.378;10.400;2023-02-19T06:14:17;1.80;;;1.70;;
58896;SDS011;44677;52.378;10.400;2023-02-19T06:16:43;1.60;;;1.50;;
58896;SDS011;44677;52.378;10.400;2023-02-19T06:19:08;1.90;;;1.70;;
58896;SDS011;44677;52.378;10.400;2023-02-19T06:21:34;2.30;;;2.20;;
58896;SDS011;44677;52.378;10.400;2023-02-19T06:24:04;1.90;;;1.80;;
58896;SDS011;44677;52.378;10.400;2023-02-19T06:26:47;2.60;;;2.10;;
58896;SDS011;44677;52.378;10.400;2023-02-19T06:29:12;3.30;;;2.10;;
58896;SDS011;44677;52.378;10.400;2023-02-19T06:31:37;2.40;;;2.10;;
58896;SDS011;44677;52.378;10.400;2023-02-19T06:34:03;2.70;;;1.70;;
58896;SDS011;44677;52.378;10.400;2023-02-19T06:36:38;3.90;;;2.10;;
58896;SDS011;44677;52.378;10.400;2023-02-19T06:39:04;2.20;;;2.00;;
58896;SDS011;44677;52.378;10.400;2023-02-19T06:41:30;2.60;;;2.10;;
58896;SDS011;44677;52.378;10.400;2023-02-19T06:43:56;2.70;;;2.00;;
58896;SDS011;44677;52.378;10.400;2023-02-19T06:46:30;2.10;;;1.80;;
58896;SDS011;44677;52.378;10.400;2023-02-19T06:48:55;2.60;;;2.40;;
58896;SDS011;44677;52.378;10.400;2023-02-19T06:51:21;2.10;;;1.90;;
58896;SDS011;44677;52.378;10.400;2023-02-19T06:54:06;2.40;;;2.10;;
58896;SDS011;44677;52.378;10.400;2023-02-19T06:56:32;1.80;;;1.70;;
58896;SDS011;44677;52.378;10.400;2023-02-19T06:59:00;3.00;;;2.00;;
58896;SDS011;44677;52.378;10.400;2023-02-19T07:01:45;2.40;;;1.90;;
58896;SDS011;44677;52.378;10.400;2023-02-19T07:04:22;1.80;;;1.70;;
58896;SDS011;44677;52.378;10.400;2023-02-19T07:06:47;2.30;;;2.00;;
58896;SDS011;44677;52.378;10.400;2023-02-19T07:09:13;2.30;;;2.10;;
58896;SDS011;44677;52.378;10.400;2023-02-19T07:11:38;2.30;;;2.10;;
58896;SDS011;44677;52.378;10.400;2023-02-19T07:14:05;3.40;;;2.10;;
58896;SDS011;44677;52.378;10.400;2023-02-19T07:16:45;2.90;;;2.10;;
58896;SDS011;44677;52.378;10.400;2023-02-19T07:19:11;3.80;;;2.30;;
58896;SDS011;44677;52.378;10.400;2023-02-19T07:21:59;2.90;;;2.10;;
58896;SDS011;44677;52.378;10.400;2023-02-19T07:24:24;2.40;;;2.20;;
58896;SDS011;44677;52.378;10.400;2023-02-19T07:26:50;4.40;;;2.90;;
58896;SDS011;44677;52.378;10.400;2023-02-19T07:29:15;2.80;;;2.60;;
58896;SDS011;44677;52.378;10.400;2023-02-19T07:31:41;2.80;;;2.60;;
58896;SDS011;44677;52.378;10.400;2023-02-19T07:34:06;3.60;;;2.60;;
58896;SDS011;44677;52.378;10.400;2023-02-19T07:36:32;3.50;;;3.10;;
58896;SDS011;44677;52.378;10.400;2023-02-19T07:38:58;3.90;;;2.60;;
58896;SDS011;44677;52.378;10.400;2023-02-19T07:41:36;2.70;;;2.40;;
58896;SDS011;44677;52.378;10.400;2023-02-19T07:44:02;3.80;;;2.90;;
58896;SDS011;44677;52.378;10.400;2023-02-19T07:47:10;4.40;;;3.20;;
58896;SDS011;44677;52.378;10.400;2023-02-19T07:49:36;3.20;;;2.90;;
58896;SDS011;44677;52.378;10.400;2023-02-19T07:52:01;5.20;;;2.50;;
58896;SDS011;44677;52.378;10.400;2023-02-19T07:54:26;2.60;;;2.40;;
58896;SDS011;44677;52.378;10.400;2023-02-19T07:56:52;3.00;;;2.70;;
58896;SDS011;44677;52.378;10.400;2023-02-19T07:59:21;2.60;;;2.40;;
58896;SDS011;44677;52.378;10.400;2023-02-19T08:01:50;3.10;;;2.70;;
58896;SDS011;44677;52.378;10.400;2023-02-19T08:04:34;2.80;;;2.60;;
58896;SDS011;44677;52.378;10.400;2023-02-19T08:06:59;2.90;;;2.50;;
58896;SDS011;44677;52.378;10.400;2023-02-19T08:09:25;3.00;;;2.80;;
58896;SDS011;44677;52.378;10.400;2023-02-19T08:11:50;2.40;;;2.30;;
58896;SDS011;44677;52.378;10.400;2023-02-19T08:14:34;2.90;;;2.70;;
58896;SDS011;44677;52.378;10.400;2023-02-19T08:17:00;3.00;;;2.80;;
58896;SDS011;44677;52.378;10.400;2023-02-19T08:19:25;2.90;;;2.50;;
58896;SDS011;44677;52.378;10.400;2023-02-19T08:21:53;2.80;;;2.60;;
58896;SDS011;44677;52.378;10.400;2023-02-19T08:24:19;3.40;;;2.30;;
58896;SDS011;44677;52.378;10.400;2023-02-19T08:26:44;2.70;;;2.50;;
58896;SDS011;44677;52.378;10.400;2023-02-19T08:29:10;2.80;;;2.60;;
58896;SDS011;44677;52.378;10.400;2023-02-19T08:31:35;6.40;;;2.60;;
58896;SDS011;44677;52.378;10.400;2023-02-19T08:34:01;3.10;;;2.80;;
58896;SDS011;44677;52.378;10.400;2023-02-19T08:36:32;3.00;;;2.70;;
58896;SDS011;44677;52.378;10.400;2023-02-19T08:39:06;2.90;;;2.60;;
58896;SDS011;44677;52.378;10.400;2023-02-19T08:41:32;2.70;;;2.50;;
58896;SDS011;44677;52.378;10.400;2023-02-19T08:44:05;3.10;;;2.90;;
58896;SDS011;44677;52.378;10.400;2023-02-19T08:46:31;3.30;;;2.60;;
58896;SDS011;44677;52.378;10.400;2023-02-19T08:48:56;2.80;;;2.60;;
58896;SDS011;44677;52.378;10.400;2023-02-19T08:51:22;3.10;;;2.90;;
58896;SDS011;44677;52.378;10.400;2023-02-19T08:53:47;3.00;;;2.60;;
58896;SDS011;44677;52.378;10.400;2023-02-19T08:56:19;3.30;;;2.80;;
58896;SDS011;44677;52.378;10.400;2023-02-19T09:02:18;4.00;;;2.80;;
58896;SDS011;44677;52.378;10.400;2023-02-19T09:04:56;3.00;;;2.70;;
58896;SDS011;44677;52.378;10.400;2023-02-19T09:07:21;3.00;;;2.80;;
58896;SDS011;44677;52.378;10.400;2023-02-19T09:09:51;4.10;;;3.20;;
58896;SDS011;44677;52.378;10.400;2023-02-19T09:12:17;4.10;;;3.10;;
58896;SDS011;44677;52.378;10.400;2023-02-19T09:14:46;3.60;;;2.70;;
58896;SDS011;44677;52.378;10.400;2023-02-19T09:17:20;3.20;;;2.70;;
58896;SDS011;44677;52.378;10.400;2023-02-19T09:19:46;4.80;;;3.20;;
58896;SDS011;44677;52.378;10.400;2023-02-19T09:22:15;4.60;;;3.20;;
58896;SDS011;44677;52.378;10.400;2023-02-19T09:24:41;3.30;;;3.00;;
58896;SDS011;44677;52.378;10.400;2023-02-19T09:27:07;4.20;;;3.10;;
58896;SDS011;44677;52.378;10.400;2023-02-19T09:29:42;4.10;;;3.10;;
58896;SDS011;44677;52.378;10.400;2023-02-19T09:32:07;4.60;;;3.60;;
58896;SDS011;44677;52.378;10.400;2023-02-19T09:34:32;4.70;;;3.40;;
58896;SDS011;44677;52.378;10.400;2023-02-19T09:36:58;4.70;;;3.40;;
58896;SDS011;44677;52.378;10.400;2023-02-19T09:39:26;8.20;;;3.70;;
58896;SDS011;44677;52.378;10.400;2023-02-19T09:41:55;6.20;;;3.80;;
